Time;durP1;ratioP1;P1;durP2;ratioP2;P2;SDS_P1;SDS_P2;PMS_P1;PMS_P2;Temp;Humidity;BMP_temperature;BMP_pressure;BME280_temperature;BME280_humidity;BME280_pressure;Samples;Min_cycle;Max_cycle;Signal;HPM_P1;HPM_P2
2022/04/04 00:01:45;;;;;;;7.53;5.43;;;;;;;5.94;55.99;97195.03;6301657;22;20215;-89
2022/04/04 00:04:12;;;;;;;7.80;6.10;;;;;;;5.98;55.48;97199.22;6300650;22;20167;-88
2022/04/04 00:06:40;;;;;;;7.20;5.50;;;;;;;6.05;55.50;97200.75;6299004;22;20164;-89
2022/04/04 00:09:07;;;;;;;8.17;6.27;;;;;;;6.12;55.67;97205.69;6299565;22;20175;-90
2022/04/04 00:11:33;;;;;;;9.57;6.40;;;;;;;6.14;55.54;97191.09;6297281;22;20160;-91
2022/04/04 00:14:03;;;;;;;8.80;5.80;;;;;;;6.26;55.46;97188.22;6283160;22;20160;-95
2022/04/04 00:16:35;;;;;;;7.33;5.83;;;;;;;6.05;55.71;97163.06;6277250;22;20172;-90
2022/04/04 00:19:02;;;;;;;7.53;6.10;;;;;;;6.08;55.70;97173.25;6275133;22;20163;-96
2022/04/04 00:21:30;;;;;;;7.40;5.80;;;;;;;6.16;54.87;97179.03;6273799;22;20181;-95
2022/04/04 00:23:57;;;;;;;6.53;5.10;;;;;;;5.90;55.46;97140.31;6273405;22;20201;-91
2022/04/04 00:26:25;;;;;;;7.53;5.93;;;;;;;5.97;55.02;97177.84;6273651;22;20262;-96
2022/04/04 00:28:54;;;;;;;5.93;4.80;;;;;;;5.87;53.74;97160.13;6248639;22;20174;-94
2022/04/04 00:31:21;;;;;;;8.27;4.73;;;;;;;5.94;53.92;97172.75;6279424;22;20229;-86
2022/04/04 00:33:49;;;;;;;6.90;4.80;;;;;;;6.01;54.08;97184.59;6298832;22;20190;-89
2022/04/04 00:36:19;;;;;;;7.20;5.30;;;;;;;6.00;53.55;97177.75;6277514;22;20570;-88
2022/04/04 00:38:46;;;;;;;8.07;5.03;;;;;;;6.08;53.45;97175.81;6243143;22;20198;-86
2022/04/04 00:41:17;;;;;;;8.20;5.83;;;;;;;6.05;54.33;97149.34;6271553;22;20301;-89
2022/04/04 00:43:49;;;;;;;6.27;5.00;;;;;;;6.17;52.36;97167.03;6270103;22;20194;-90
2022/04/04 00:46:21;;;;;;;6.70;5.10;;;;;;;6.20;53.32;97148.97;6273098;22;20178;-89
2022/04/04 00:48:48;;;;;;;6.40;4.70;;;;;;;6.38;51.25;97211.03;6274977;22;20664;-89
2022/04/04 00:51:17;;;;;;;4.83;3.97;;;;;;;6.22;51.84;97202.00;6271574;22;20168;-87
2022/04/04 00:53:44;;;;;;;6.33;3.83;;;;;;;6.11;50.74;97186.03;6272464;22;20247;-88
2022/04/04 00:56:12;;;;;;;4.93;3.90;;;;;;;5.94;50.78;97157.34;6272425;22;20517;-85
2022/04/04 00:58:39;;;;;;;5.23;4.20;;;;;;;6.20;51.68;97213.25;6271378;22;20171;-86
2022/04/04 01:01:07;;;;;;;5.03;4.53;;;;;;;6.12;51.44;97174.84;6271151;22;20181;-85
2022/04/04 01:03:35;;;;;;;5.00;4.10;;;;;;;6.16;51.99;97194.44;6270641;22;20273;-85
2022/04/04 01:06:03;;;;;;;4.97;4.10;;;;;;;5.98;51.53;97189.78;6269243;22;20174;-84
2022/04/04 01:08:31;;;;;;;6.30;4.30;;;;;;;5.87;52.25;97204.66;6270195;22;20223;-84
2022/04/04 01:10:58;;;;;;;5.53;4.30;;;;;;;5.80;52.38;97205.66;6269536;22;20240;-85
2022/04/04 01:13:25;;;;;;;4.83;4.07;;;;;;;5.78;52.29;97192.84;6269103;22;20170;-86
2022/04/04 01:15:55;;;;;;;6.53;4.10;;;;;;;5.53;52.31;97163.47;6269393;22;20756;-87
2022/04/04 01:18:25;;;;;;;4.30;3.53;;;;;;;5.52;51.69;97159.22;6268309;22;20700;-85
2022/04/04 01:20:53;;;;;;;4.50;4.07;;;;;;;5.55;50.72;97161.72;6269277;22;20169;-85
2022/04/04 01:23:23;;;;;;;4.57;3.37;;;;;;;5.68;49.70;97198.25;6218228;22;20237;-86
2022/04/04 01:25:53;;;;;;;3.97;3.30;;;;;;;5.45;49.72;97161.97;6270339;22;20196;-85
2022/04/04 01:28:20;;;;;;;4.10;3.40;;;;;;;5.66;50.03;97187.16;6272208;22;20176;-84
2022/04/04 01:30:51;;;;;;;3.43;2.70;;;;;;;5.57;49.27;97182.22;6278102;22;20237;-85
2022/04/04 01:33:22;;;;;;;4.83;2.83;;;;;;;5.39;49.42;97151.84;6282453;22;20163;-92
2022/04/04 01:35:57;;;;;;;4.50;2.90;;;;;;;5.66;48.75;97194.84;6283656;22;20609;-93
2022/04/04 01:38:25;;;;;;;3.90;2.70;;;;;;;5.54;48.38;97164.34;6284828;22;20167;-84
2022/04/04 01:40:53;;;;;;;4.40;3.20;;;;;;;5.61;48.90;97184.69;6283973;22;20219;-95
2022/04/04 01:43:22;;;;;;;3.63;2.73;;;;;;;5.53;48.19;97170.34;6286293;22;20188;-91
2022/04/04 01:48:39;;;;;;;4.53;3.00;;;;;;;5.51;48.08;97174.66;6269994;22;20196;-85
2022/04/04 01:51:07;;;;;;;3.03;2.70;;;;;;;5.48;48.74;97188.41;6295921;22;20165;-86
2022/04/04 01:53:37;;;;;;;3.03;2.57;;;;;;;5.55;48.40;97222.50;6298973;22;20197;-90
2022/04/04 01:56:05;;;;;;;3.03;2.73;;;;;;;5.62;49.20;97222.34;6300210;22;20242;-88
2022/04/04 01:58:32;;;;;;;3.67;2.80;;;;;;;5.63;47.17;97228.31;6299313;22;20218;-84
2022/04/04 02:01:01;;;;;;;4.23;2.80;;;;;;;5.66;47.18;97236.81;6299588;22;20171;-87
2022/04/04 02:03:31;;;;;;;2.70;2.30;;;;;;;5.63;47.62;97228.31;6297725;22;20260;-85
2022/04/04 02:06:03;;;;;;;3.07;2.57;;;;;;;5.61;47.84;97220.66;6295513;22;20189;-88
2022/04/04 02:08:31;;;;;;;2.67;2.47;;;;;;;5.60;47.98;97228.41;6274040;22;20187;-89
2022/04/04 02:11:02;;;;;;;3.90;2.87;;;;;;;5.55;47.74;97222.50;6298079;22;20160;-86
2022/04/04 02:13:29;;;;;;;3.07;2.30;;;;;;;5.32;47.96;97181.09;6300246;22;20169;-85
2022/04/04 02:16:02;;;;;;;3.63;2.73;;;;;;;5.47;48.30;97198.72;6298920;22;20162;-89
2022/04/04 02:18:31;;;;;;;3.73;2.63;;;;;;;5.66;48.22;97236.81;6298167;22;20202;-87
2022/04/04 02:20:59;;;;;;;2.70;2.30;;;;;;;5.55;48.21;97232.78;6299194;22;20163;-87
2022/04/04 02:23:26;;;;;;;2.80;2.60;;;;;;;5.44;49.13;97219.38;6299519;22;20190;-88
2022/04/04 02:25:55;;;;;;;3.50;2.83;;;;;;;5.23;49.27;97189.03;6300728;22;20173;-87
2022/04/04 02:28:23;;;;;;;3.57;2.90;;;;;;;5.44;49.44;97227.06;6297912;22;20185;-90
2022/04/04 02:30:55;;;;;;;6.53;3.00;;;;;;;5.43;49.43;97223.66;6300686;22;20219;-88
2022/04/04 02:33:23;;;;;;;2.57;2.37;;;;;;;5.46;49.27;97236.41;6288605;22;20504;-92
2022/04/04 02:35:52;;;;;;;3.17;2.87;;;;;;;5.09;49.87;97175.66;6247655;22;20177;-84
2022/04/04 02:38:23;;;;;;;2.80;2.53;;;;;;;5.27;49.62;97219.75;6271496;22;20166;-84
2022/04/04 02:40:55;;;;;;;3.67;2.97;;;;;;;5.28;49.87;97226.56;6272362;22;20741;-85
2022/04/04 02:43:23;;;;;;;3.07;2.77;;;;;;;5.30;49.64;97239.34;6275703;22;20190;-85
2022/04/04 02:45:51;;;;;;;3.20;2.80;;;;;;;5.32;49.19;97238.44;6272999;22;20229;-85
2022/04/04 02:48:21;;;;;;;4.23;3.03;;;;;;;5.26;49.81;97227.44;6274783;22;20195;-85
2022/04/04 02:50:49;;;;;;;3.97;2.80;;;;;;;5.30;49.70;97247.91;6271720;22;20169;-85
2022/04/04 02:53:18;;;;;;;4.77;3.00;;;;;;;5.30;49.57;97236.78;6273564;22;20165;-84
2022/04/04 02:58:38;;;;;;;4.13;3.57;;;;;;;5.37;49.65;97236.63;6272740;22;20222;-86
2022/04/04 03:01:05;;;;;;;4.27;3.17;;;;;;;5.37;50.20;97249.47;6272574;22;20618;-85
2022/04/04 03:03:33;;;;;;;5.63;3.20;;;;;;;5.36;50.14;97252.91;6270869;22;20201;-85
2022/04/04 03:06:00;;;;;;;3.90;3.00;;;;;;;5.43;49.33;97254.47;6272911;22;20245;-83
2022/04/04 03:08:28;;;;;;;4.80;3.00;;;;;;;5.47;49.36;97258.66;6271000;22;20220;-86
2022/04/04 03:10:55;;;;;;;3.60;2.90;;;;;;;5.24;50.02;97216.38;6270832;22;20179;-84
2022/04/04 03:13:23;;;;;;;3.70;3.13;;;;;;;5.39;50.10;97247.72;6271638;22;20551;-85
2022/04/04 03:15:50;;;;;;;4.53;3.30;;;;;;;5.55;49.77;97241.34;6270193;22;20165;-88
2022/04/04 03:18:17;;;;;;;4.73;3.33;;;;;;;5.43;50.96;97225.38;6274395;22;20661;-90
2022/04/04 03:20:49;;;;;;;4.90;3.50;;;;;;;5.60;50.41;97238.69;6270154;22;20170;-88
2022/04/04 03:23:16;;;;;;;5.33;3.50;;;;;;;5.68;50.11;97241.91;6277711;22;20194;-86
2022/04/04 03:25:43;;;;;;;6.10;3.97;;;;;;;5.60;49.88;97218.97;6275630;22;20214;-85
2022/04/04 03:28:10;;;;;;;6.43;4.57;;;;;;;5.65;50.29;97242.81;6273387;22;20166;-86
2022/04/04 03:30:40;;;;;;;8.57;4.00;;;;;;;5.71;50.49;97249.53;6270350;22;20230;-87
2022/04/04 03:33:07;;;;;;;4.43;3.50;;;;;;;5.50;50.21;97252.63;6272527;22;20697;-85
2022/04/04 03:35:34;;;;;;;6.53;4.03;;;;;;;5.44;50.15;97253.56;6270228;22;20198;-88
2022/04/04 03:38:03;;;;;;;4.73;3.83;;;;;;;5.45;50.43;97264.69;6270608;22;20170;-84
2022/04/04 03:40:34;;;;;;;4.90;3.40;;;;;;;5.34;50.23;97246.09;6273695;22;20161;-85
2022/04/04 03:43:02;;;;;;;6.37;4.50;;;;;;;5.50;49.93;97262.88;6273699;22;20195;-91
2022/04/04 03:45:29;;;;;;;6.60;3.80;;;;;;;5.47;49.67;97247.53;6271071;22;20180;-89
2022/04/04 03:47:58;;;;;;;5.53;4.20;;;;;;;5.55;49.20;97250.75;6270845;22;20161;-87
2022/04/04 03:50:28;;;;;;;6.50;4.30;;;;;;;5.34;49.22;97216.13;6270679;22;20170;-85
2022/04/04 03:52:57;;;;;;;5.13;3.97;;;;;;;5.45;48.82;97244.16;6271900;22;20162;-87
2022/04/04 03:55:32;;;;;;;5.73;3.80;;;;;;;5.60;49.15;97267.78;6244549;22;20173;-84
2022/04/04 03:58:00;;;;;;;7.20;4.97;;;;;;;5.71;50.85;97272.66;6271940;22;20193;-87
2022/04/04 04:00:27;;;;;;;11.63;6.47;;;;;;;5.44;49.88;97221.94;6272324;22;20209;-90
2022/04/04 04:02:56;;;;;;;9.17;5.83;;;;;;;5.76;49.79;97289.66;6273177;22;20200;-86
2022/04/04 04:05:23;;;;;;;11.13;7.00;;;;;;;5.68;52.05;97293.28;6251704;22;20181;-85
2022/04/04 04:07:51;;;;;;;8.43;6.30;;;;;;;5.33;55.02;97267.53;6279581;22;20217;-86
2022/04/04 04:10:20;;;;;;;10.03;7.23;;;;;;;5.06;57.75;97293.78;6281378;22;20166;-83
2022/04/04 04:12:48;;;;;;;16.93;9.63;;;;;;;4.66;59.19;97250.94;6278938;22;20674;-84
2022/04/04 04:15:22;;;;;;;13.83;8.40;;;;;;;4.63;61.66;97292.06;6289153;22;20237;-88
2022/04/04 04:17:52;;;;;;;15.07;8.57;;;;;;;4.04;64.58;97302.47;6293237;22;20171;-89
2022/04/04 04:20:26;;;;;;;14.93;9.03;;;;;;;3.81;66.90;97330.19;6294589;22;20168;-87
2022/04/04 04:22:54;;;;;;;12.93;9.20;;;;;;;3.72;68.29;97332.84;6289999;22;20214;-92
2022/04/04 04:25:27;;;;;;;16.27;8.93;;;;;;;3.99;67.53;97335.00;6288689;22;20167;-87
2022/04/04 04:27:59;;;;;;;14.10;9.53;;;;;;;3.82;67.28;97289.16;6282178;22;20182;-90
2022/04/04 04:30:29;;;;;;;16.00;9.40;;;;;;;4.39;66.55;97346.31;6276037;22;20315;-92
2022/04/04 04:32:58;;;;;;;14.40;9.80;;;;;;;4.64;65.91;97339.88;6276752;22;20192;-93
2022/04/04 04:35:26;;;;;;;15.13;10.27;;;;;;;4.69;65.00;97352.63;6270609;22;20173;-87
2022/04/04 04:37:54;;;;;;;18.67;14.10;;;;;;;4.92;64.80;97353.91;6270836;22;20211;-86
2022/04/04 04:40:22;;;;;;;17.07;10.90;;;;;;;5.17;64.00;97362.00;6270013;22;20173;-86
2022/04/04 04:42:51;;;;;;;18.87;9.57;;;;;;;5.26;63.96;97360.94;6269697;22;20172;-86
2022/04/04 04:45:18;;;;;;;14.93;10.40;;;;;;;5.47;62.56;97339.97;6269196;22;20165;-83
2022/04/04 04:47:49;;;;;;;30.73;16.63;;;;;;;6.02;61.02;97376.47;6270883;22;20173;-88
2022/04/04 04:50:18;;;;;;;18.67;10.17;;;;;;;6.26;60.34;97381.06;6270891;22;20234;-89
2022/04/04 04:52:46;;;;;;;11.87;9.67;;;;;;;6.02;59.93;97322.50;6270835;22;20159;-89
2022/04/04 04:55:15;;;;;;;18.00;9.83;;;;;;;6.49;58.53;97383.91;6272308;22;20631;-91
2022/04/04 04:57:43;;;;;;;20.93;9.53;;;;;;;6.50;57.75;97357.31;6271453;22;20163;-85
2022/04/04 05:00:13;;;;;;;17.50;8.73;;;;;;;6.71;57.15;97378.25;6271830;22;20161;-84
2022/04/04 05:02:42;;;;;;;15.00;9.17;;;;;;;6.57;56.78;97366.56;6268474;22;20175;-85
2022/04/04 05:05:10;;;;;;;16.63;9.50;;;;;;;6.99;56.19;97387.81;6271966;22;20562;-86
2022/04/04 05:07:40;;;;;;;15.33;8.83;;;;;;;7.15;54.11;97376.19;6271919;22;20214;-94
2022/04/04 05:10:07;;;;;;;15.17;8.80;;;;;;;7.42;53.48;97390.06;6271867;22;20161;-87
2022/04/04 05:12:36;;;;;;;21.23;9.67;;;;;;;7.41;52.18;97375.50;6272124;22;20168;-84
2022/04/04 05:15:03;;;;;;;11.73;6.97;;;;;;;7.43;51.72;97386.59;6268995;22;20199;-84
2022/04/04 05:17:32;;;;;;;11.07;7.43;;;;;;;7.38;52.68;97384.16;6276171;22;20174;-84
2022/04/04 05:19:59;;;;;;;8.30;5.40;;;;;;;7.28;48.03;97405.06;6290167;22;20182;-90
2022/04/04 05:22:27;;;;;;;7.33;5.43;;;;;;;7.30;48.92;97398.13;6269771;22;20175;-88
2022/04/04 05:24:56;;;;;;;6.83;4.37;;;;;;;7.24;46.79;97403.44;6298916;22;20188;-85
2022/04/04 05:27:24;;;;;;;6.87;4.57;;;;;;;7.00;46.31;97368.91;6295699;22;20233;-84
2022/04/04 05:29:53;;;;;;;5.60;4.67;;;;;;;7.07;46.61;97372.13;6272115;22;20175;-85
2022/04/04 05:32:22;;;;;;;7.07;4.70;;;;;;;7.12;45.65;97380.59;6297049;22;20167;-85
2022/04/04 05:34:49;;;;;;;5.43;4.67;;;;;;;7.03;46.29;97375.69;6281370;22;20170;-90
2022/04/04 05:37:18;;;;;;;5.30;4.40;;;;;;;7.04;46.25;97374.81;6272090;22;20251;-87
2022/04/04 05:39:45;;;;;;;6.77;4.53;;;;;;;7.17;45.95;97414.81;6274482;22;20164;-91
2022/04/04 05:42:12;;;;;;;6.50;4.93;;;;;;;7.19;46.42;97400.16;6272504;22;20172;-92
2022/04/04 05:44:39;;;;;;;10.30;5.60;;;;;;;7.31;47.47;97412.72;6272722;22;20678;-92
2022/04/04 05:50:35;;;;;;;7.93;5.67;;;;;;;7.72;47.39;97425.28;6274763;22;20196;-91
2022/04/04 05:53:05;;;;;;;7.20;5.93;;;;;;;7.64;48.57;97416.94;6270741;22;20259;-93
2022/04/04 05:55:33;;;;;;;8.80;6.10;;;;;;;7.77;48.63;97436.31;6271020;22;20157;-92
2022/04/04 05:58:05;;;;;;;8.40;5.63;;;;;;;7.71;48.34;97402.97;6248434;22;20176;-90
2022/04/04 06:00:32;;;;;;;8.70;5.63;;;;;;;8.01;48.34;97422.72;6275374;22;20214;-94
2022/04/04 06:02:59;;;;;;;9.87;6.90;;;;;;;8.38;49.30;97431.94;6284318;22;20211;-89
2022/04/04 06:05:30;;;;;;;9.67;6.47;;;;;;;8.48;47.00;97423.03;6288224;22;20165;-93
2022/04/04 06:08:57;;;;;;;8.67;6.20;;;;;;;8.60;46.85;97422.63;6284306;22;20548;-94
2022/04/04 06:11:25;;;;;;;8.77;6.27;;;;;;;8.80;45.61;97428.00;6279566;22;20164;-90
2022/04/04 06:13:52;;;;;;;10.30;5.97;;;;;;;8.83;43.92;97415.84;6284712;22;20190;-88
2022/04/04 06:16:21;;;;;;;10.50;6.10;;;;;;;8.70;44.64;97408.53;6289867;22;20497;-91
2022/04/04 06:18:50;;;;;;;10.23;6.10;;;;;;;8.65;44.21;97426.78;6251967;22;20184;-94
2022/04/04 06:21:18;;;;;;;9.73;5.83;;;;;;;8.47;44.93;97400.72;6276090;22;20171;-92
2022/04/04 06:23:46;;;;;;;6.83;4.80;;;;;;;8.47;43.49;97406.69;6276207;22;20672;-94
2022/04/04 06:26:16;;;;;;;5.67;5.00;;;;;;;8.43;44.16;97391.38;6278280;22;20169;-93
2022/04/04 06:28:47;;;;;;;7.83;5.50;;;;;;;8.12;44.75;97342.41;6291350;22;20164;-89
2022/04/04 06:31:15;;;;;;;7.63;5.77;;;;;;;8.58;43.38;97409.78;6290184;22;20226;-90
2022/04/04 06:33:46;;;;;;;10.50;5.40;;;;;;;8.94;42.58;97428.41;6289970;22;20267;-86
2022/04/04 06:36:14;;;;;;;5.00;4.30;;;;;;;9.19;41.61;97442.19;6289960;22;20162;-85
2022/04/04 06:38:43;;;;;;;6.73;4.37;;;;;;;9.20;41.11;97423.22;6289206;22;20173;-85
2022/04/04 06:41:11;;;;;;;7.83;4.67;;;;;;;8.90;42.38;97422.50;6293234;22;20524;-88
2022/04/04 06:43:39;;;;;;;4.17;3.63;;;;;;;9.12;41.42;97458.81;6294097;22;20196;-84
2022/04/04 06:46:08;;;;;;;6.73;4.53;;;;;;;8.92;41.78;97450.88;6259115;22;20232;-83
2022/04/04 06:48:37;;;;;;;17.03;4.10;;;;;;;9.05;41.02;97469.41;6280013;22;20218;-85
2022/04/04 06:51:05;;;;;;;6.13;4.33;;;;;;;8.69;40.47;97392.22;6281539;22;20176;-84
2022/04/04 06:53:34;;;;;;;4.70;4.20;;;;;;;9.05;41.22;97443.56;6278306;22;20168;-87
2022/04/04 06:56:04;;;;;;;5.83;4.93;;;;;;;9.25;41.60;97469.56;6277374;22;20180;-91
2022/04/04 06:58:33;;;;;;;5.97;4.00;;;;;;;9.27;41.37;97454.84;6285583;22;20161;-84
2022/04/04 07:01:02;;;;;;;9.53;6.20;;;;;;;9.07;41.60;97428.84;6287525;22;20617;-86
2022/04/04 07:03:31;;;;;;;7.97;5.93;;;;;;;9.29;41.64;97441.00;6285616;22;20184;-91
2022/04/04 07:05:59;;;;;;;5.53;4.93;;;;;;;9.37;41.74;97449.31;6279337;22;20180;-86
2022/04/04 07:08:28;;;;;;;4.50;3.97;;;;;;;9.27;41.54;97436.78;6292147;22;20175;-87
2022/04/04 07:11:01;;;;;;;7.43;4.37;;;;;;;9.31;41.74;97439.19;6298215;22;20163;-84
2022/04/04 07:13:34;;;;;;;4.57;3.80;;;;;;;9.26;41.09;97472.09;6300674;22;20157;-85
2022/04/04 07:16:03;;;;;;;9.40;5.60;;;;;;;9.28;41.72;97459.97;6299579;22;20213;-92
2022/04/04 07:18:34;;;;;;;5.90;4.47;;;;;;;9.23;40.90;97451.53;6291792;22;20207;-89
2022/04/04 07:21:03;;;;;;;5.20;4.37;;;;;;;9.32;41.20;97448.63;6296707;22;20177;-89
2022/04/04 07:23:33;;;;;;;6.80;4.63;;;;;;;9.69;41.26;97461.97;6293389;22;20206;-92
2022/04/04 07:26:07;;;;;;;6.80;5.03;;;;;;;9.82;40.55;97447.69;6284530;22;20167;-85
2022/04/04 07:28:34;;;;;;;7.27;4.57;;;;;;;9.91;40.09;97471.53;6283766;22;20638;-91
2022/04/04 07:31:09;;;;;;;4.40;3.90;;;;;;;10.07;39.75;97483.03;6291052;22;20244;-87
2022/04/04 07:33:40;;;;;;;10.57;4.40;;;;;;;10.32;39.29;97494.19;6234103;22;20217;-95
2022/04/04 07:36:11;;;;;;;4.77;4.23;;;;;;;10.49;39.47;97481.44;6282732;22;20184;-85
2022/04/04 07:38:41;;;;;;;6.33;4.90;;;;;;;10.63;39.27;97487.75;6264871;22;20160;-93
2022/04/04 07:41:10;;;;;;;5.73;4.30;;;;;;;10.54;38.21;97464.84;6236582;22;20169;-86
2022/04/04 07:43:45;;;;;;;5.60;4.27;;;;;;;10.42;38.54;97498.13;6230309;22;20226;-87
2022/04/04 07:46:37;;;;;;;14.33;7.70;;;;;;;10.07;39.32;97499.41;6258189;22;20226;-93
2022/04/04 07:49:05;;;;;;;8.53;5.80;;;;;;;10.36;39.31;97493.16;6252192;22;20192;-88
2022/04/04 07:51:39;;;;;;;5.77;4.67;;;;;;;10.77;39.31;97495.00;6284019;22;20165;-93
2022/04/04 07:57:58;;;;;;;5.73;4.63;;;;;;;10.84;38.85;97474.91;6289029;22;20176;-92
2022/04/04 08:00:32;;;;;;;23.30;16.17;;;;;;;11.02;38.08;97506.09;6290381;22;20171;-89
2022/04/04 08:03:04;;;;;;;6.50;4.63;;;;;;;10.95;38.41;97504.66;6260026;22;20171;-93
2022/04/04 08:05:33;;;;;;;5.07;4.03;;;;;;;10.92;38.01;97481.44;6280313;22;20605;-89
2022/04/04 08:08:07;;;;;;;6.80;4.60;;;;;;;10.99;38.58;97461.31;6284269;22;20257;-90
2022/04/04 08:11:03;;;;;;;5.90;4.57;;;;;;;11.15;37.69;97503.84;6293987;22;20191;-86
2022/04/04 08:13:33;;;;;;;8.60;6.50;;;;;;;10.34;38.96;97474.25;6280697;22;20175;-93
2022/04/04 08:16:08;;;;;;;6.70;5.90;;;;;;;10.34;39.44;97498.41;6282256;22;20167;-89
2022/04/04 08:18:40;;;;;;;6.37;5.07;;;;;;;10.70;38.66;97495.28;6288993;22;20182;-88
2022/04/04 08:21:20;;;;;;;7.07;5.53;;;;;;;10.47;39.38;97472.88;6280977;22;20170;-93
2022/04/04 08:23:50;;;;;;;6.93;4.80;;;;;;;10.41;39.58;97467.94;6282217;22;20161;-94
2022/04/04 08:26:18;;;;;;;7.10;4.80;;;;;;;10.18;40.31;97467.97;6282201;22;20165;-91
2022/04/04 08:28:46;;;;;;;5.73;4.67;;;;;;;10.55;39.95;97483.81;6286453;22;20160;-87
2022/04/04 08:31:16;;;;;;;5.97;4.00;;;;;;;10.80;38.75;97466.38;6288002;22;20168;-87
2022/04/04 08:33:46;;;;;;;6.10;4.17;;;;;;;10.96;38.80;97477.84;6286658;22;20260;-89
2022/04/04 08:36:15;;;;;;;5.90;3.53;;;;;;;10.91;38.12;97469.41;6280193;22;20167;-87
2022/04/04 08:38:45;;;;;;;4.27;3.63;;;;;;;10.51;39.19;97451.13;6282985;22;20165;-86
2022/04/04 08:41:15;;;;;;;5.10;4.00;;;;;;;10.46;38.93;97429.78;6277585;22;20218;-92
2022/04/04 08:43:58;;;;;;;8.00;4.10;;;;;;;11.06;37.70;97473.13;6279172;22;20169;-86
2022/04/04 08:46:30;;;;;;;6.07;4.40;;;;;;;11.38;37.92;97447.53;6274242;22;20626;-91
2022/04/04 08:49:04;;;;;;;4.87;3.83;;;;;;;11.62;37.11;97457.78;6275920;22;20382;-89
2022/04/04 08:51:52;;;;;;;6.43;4.23;;;;;;;11.95;36.62;97462.34;6277329;22;20174;-87
2022/04/04 08:54:51;;;;;;;5.23;4.10;;;;;;;11.70;37.19;97450.53;6258219;22;20175;-85
2022/04/04 08:57:55;;;;;;;6.03;3.97;;;;;;;11.80;37.50;97467.38;6280582;22;20189;-85
2022/04/04 09:00:52;;;;;;;6.77;4.80;;;;;;;11.90;37.32;97460.88;6283037;22;20233;-88
2022/04/04 09:04:06;;;;;;;5.20;4.20;;;;;;;11.92;36.74;97440.91;6286487;22;20212;-87
2022/04/04 09:06:55;;;;;;;5.43;4.53;;;;;;;12.03;37.50;97443.88;6278879;22;20292;-89
2022/04/04 09:09:26;;;;;;;6.23;4.90;;;;;;;12.07;36.95;97373.56;6276237;22;20171;-88
2022/04/04 09:12:19;;;;;;;5.40;4.30;;;;;;;12.66;36.17;97442.63;6286385;22;20193;-91
2022/04/04 09:14:51;;;;;;;5.90;4.40;;;;;;;12.76;36.73;97428.28;6274068;22;20252;-92
2022/04/04 09:17:25;;;;;;;9.00;5.80;;;;;;;12.61;36.81;97427.25;6273993;22;20166;-89
2022/04/04 09:19:54;;;;;;;7.07;4.90;;;;;;;12.74;36.71;97428.34;6273561;22;20171;-87
2022/04/04 09:22:24;;;;;;;4.70;4.00;;;;;;;12.03;36.42;97413.56;6270846;22;20172;-90
2022/04/04 09:24:57;;;;;;;6.77;5.20;;;;;;;12.04;37.94;97411.78;6273256;22;20255;-86
2022/04/04 09:27:34;;;;;;;6.53;5.03;;;;;;;11.87;38.39;97399.56;6272499;22;20191;-87
2022/04/04 09:30:06;;;;;;;5.30;4.60;;;;;;;11.99;38.18;97380.84;6271243;22;20609;-88
2022/04/04 09:32:44;;;;;;;7.87;4.60;;;;;;;12.31;38.38;97396.69;6272499;22;20269;-89
2022/04/04 09:35:18;;;;;;;6.80;4.93;;;;;;;12.14;38.02;97389.69;6244272;22;21089;-87
2022/04/04 09:37:48;;;;;;;10.60;6.97;;;;;;;12.36;37.86;97387.78;6273738;22;20190;-86
2022/04/04 09:40:21;;;;;;;4.00;3.60;;;;;;;11.99;37.91;97387.81;6271235;22;20686;-90
2022/04/04 09:42:52;;;;;;;4.53;4.00;;;;;;;11.45;39.08;97384.16;6277251;22;20173;-90
2022/04/04 09:45:24;;;;;;;6.57;4.47;;;;;;;11.25;39.57;97345.25;6275856;22;20215;-92
2022/04/04 09:48:03;;;;;;;5.67;4.50;;;;;;;11.19;39.75;97361.06;6274931;22;20167;-90
2022/04/04 09:50:41;;;;;;;4.47;3.90;;;;;;;11.02;40.45;97371.34;6278474;22;20206;-90
2022/04/04 09:53:21;;;;;;;5.37;4.13;;;;;;;10.81;40.79;97363.59;6276462;22;20600;-91
2022/04/04 09:55:55;;;;;;;7.13;4.20;;;;;;;11.10;41.00;97360.66;6280912;22;20177;-94
2022/04/04 09:58:38;;;;;;;6.60;4.53;;;;;;;11.71;39.48;97344.09;6277570;22;20174;-87
2022/04/04 10:01:19;;;;;;;5.13;4.23;;;;;;;12.31;38.28;97356.00;6288702;22;20162;-90
2022/04/04 10:03:51;;;;;;;6.40;4.27;;;;;;;12.25;37.66;97335.50;6300268;22;20284;-87
2022/04/04 10:06:20;;;;;;;6.10;4.27;;;;;;;11.80;39.11;97327.28;6298354;22;20194;-88
2022/04/04 10:08:54;;;;;;;5.77;4.83;;;;;;;11.48;39.78;97351.22;6273751;22;20207;-85
2022/04/04 10:11:27;;;;;;;5.13;4.30;;;;;;;11.64;40.42;97350.47;6286116;22;20166;-84
2022/04/04 10:14:10;;;;;;;5.30;4.30;;;;;;;12.08;39.51;97341.50;6287765;22;20170;-88
2022/04/04 10:16:40;;;;;;;5.17;4.20;;;;;;;12.46;38.79;97337.09;6278378;22;20165;-84
2022/04/04 10:19:11;;;;;;;5.13;4.47;;;;;;;12.51;37.72;97329.88;6278668;22;20186;-91
2022/04/04 10:21:42;;;;;;;6.53;4.93;;;;;;;12.55;38.51;97323.63;6282425;22;20229;-92
2022/04/04 10:24:13;;;;;;;6.47;5.00;;;;;;;12.71;37.85;97316.78;6279545;22;20161;-90
2022/04/04 10:26:52;;;;;;;5.37;4.77;;;;;;;12.53;38.34;97290.88;6276775;22;20183;-93
2022/04/04 10:29:25;;;;;;;7.77;4.63;;;;;;;12.37;38.35;97315.88;6283499;22;20699;-94
2022/04/04 10:31:55;;;;;;;8.07;6.37;;;;;;;12.15;38.47;97308.31;6277218;22;20169;-93
2022/04/04 10:34:25;;;;;;;5.40;4.20;;;;;;;11.98;39.14;97288.34;6276782;22;20255;-93
2022/04/04 10:37:08;;;;;;;8.80;6.20;;;;;;;12.72;38.03;97291.63;6273733;22;20166;-93
2022/04/04 10:39:44;;;;;;;4.60;3.73;;;;;;;12.93;37.14;97282.75;6277713;22;20199;-92
2022/04/04 10:42:38;;;;;;;6.30;4.10;;;;;;;12.53;38.09;97294.28;6274766;22;20159;-93
2022/04/04 10:45:09;;;;;;;5.67;4.53;;;;;;;12.80;38.54;97292.91;6248037;22;20204;-92
2022/04/04 10:47:44;;;;;;;6.20;3.93;;;;;;;12.70;37.79;97296.91;6274265;22;20202;-92
2022/04/04 10:50:42;;;;;;;6.77;4.47;;;;;;;12.97;38.01;97295.50;6274885;22;20191;-93
2022/04/04 10:53:10;;;;;;;5.33;3.90;;;;;;;12.62;37.62;97251.41;6246316;22;20976;-92
2022/04/04 10:55:38;;;;;;;4.87;4.07;;;;;;;12.41;38.43;97287.09;6276881;22;20164;-92
2022/04/04 10:58:17;;;;;;;5.47;4.13;;;;;;;12.77;38.67;97287.03;6277810;22;20183;-91
2022/04/04 11:01:02;;;;;;;5.47;4.30;;;;;;;12.92;38.11;97283.69;6277496;22;20187;-91
2022/04/04 11:03:32;;;;;;;7.50;4.50;;;;;;;13.05;37.79;97280.38;6219977;22;20529;-85
2022/04/04 11:09:03;;;;;;;5.67;4.17;;;;;;;13.17;36.79;97270.28;6253669;22;20209;-94
2022/04/04 11:12:14;;;;;;;5.83;4.77;;;;;;;13.03;37.72;97265.75;6297342;22;20250;-89
2022/04/04 11:14:53;;;;;;;5.27;4.50;;;;;;;13.03;38.09;97248.41;6234781;22;20182;-90
2022/04/04 11:17:36;;;;;;;5.27;4.30;;;;;;;13.45;37.99;97260.09;6289101;22;20162;-91
2022/04/04 11:20:58;;;;;;;5.57;4.47;;;;;;;13.48;37.77;97257.31;6290106;22;20175;-91
2022/04/04 11:24:35;;;;;;;4.93;4.20;;;;;;;13.64;36.21;97219.16;6275981;22;20178;-94
2022/04/04 11:27:10;;;;;;;10.43;5.10;;;;;;;13.98;36.79;97239.75;6259365;22;20627;-91
2022/04/04 11:29:58;;;;;;;5.00;4.17;;;;;;;13.80;37.33;97214.75;6251450;22;20173;-90
2022/04/04 11:32:33;;;;;;;7.27;5.93;;;;;;;13.77;37.75;97244.41;6241189;22;20178;-90
2022/04/04 11:35:23;;;;;;;4.87;4.20;;;;;;;13.07;38.30;97233.50;6259352;22;20184;-92
2022/04/04 11:38:07;;;;;;;8.73;5.90;;;;;;;12.93;38.74;97236.78;6252102;22;20204;-94
2022/04/04 11:40:38;;;;;;;7.47;4.60;;;;;;;12.94;39.27;97222.88;6281850;22;20207;-93
2022/04/04 11:43:13;;;;;;;4.67;4.17;;;;;;;13.22;38.87;97235.31;6253084;22;20165;-95
2022/04/04 11:45:43;;;;;;;5.20;4.60;;;;;;;13.28;39.29;97236.72;6253052;22;20553;-94
2022/04/04 11:48:27;;;;;;;5.57;4.23;;;;;;;13.23;38.63;97228.34;6278144;22;20215;-92
2022/04/04 11:50:59;;;;;;;6.80;5.00;;;;;;;13.76;39.01;97228.88;6229039;22;20203;-93
2022/04/04 11:53:36;;;;;;;8.43;4.70;;;;;;;14.11;37.62;97225.13;6230922;22;20179;-90
2022/04/04 11:56:10;;;;;;;7.43;4.70;;;;;;;14.31;37.44;97214.44;6228895;22;20499;-92
2022/04/04 11:58:54;;;;;;;5.33;4.20;;;;;;;13.73;37.88;97190.00;6255907;22;20168;-90
2022/04/04 12:01:27;;;;;;;5.80;4.50;;;;;;;13.61;38.26;97181.09;6279787;22;20260;-88
2022/04/04 12:03:54;;;;;;;12.93;7.80;;;;;;;13.62;38.56;97193.19;6280676;22;20174;-90
2022/04/04 12:06:24;;;;;;;7.50;4.50;;;;;;;13.88;38.12;97204.75;6250115;22;20206;-88
2022/04/04 12:09:03;;;;;;;7.60;5.87;;;;;;;13.92;39.30;97198.44;6224542;22;20167;-89
2022/04/04 12:11:40;;;;;;;5.33;4.13;;;;;;;13.68;38.44;97189.41;6287346;22;20172;-87
2022/04/04 12:14:12;;;;;;;6.17;4.53;;;;;;;13.44;39.50;97211.56;6290662;22;20174;-92
2022/04/04 12:16:51;;;;;;;5.53;4.40;;;;;;;13.61;39.02;97181.09;6276407;22;20351;-94